Flight Track Log - Related Links

Times and Time Zones

All times are in EDT time to prevent confusion due to time zone crossing. See the UAL332 flight status page for this flight to view local times or setup timezone preferences in your user account.


Time Position Orientation Groundspeed Altitude Reporting Facility
EDT Latitude Longitude Course Direction KTS MPH feet Rate Location/Type
Thu 04:37:55 PM 38.6500 -121.5500 78° East 184 212 1,500  Level Northern Cal TRACON
Thu 04:38:49 PM 38.6167 -121.5000 130° Southeast 244 281 3,000 1,983 Climbing Northern Cal TRACON
Thu 04:39:50 PM 38.6167 -121.4167 90° East 269 310 5,300 2,362 Climbing Northern Cal TRACON
Thu 04:40:00 PM 38.4945 -121.2721 80° East  Level FlightAware Approximate
Thu 04:40:56 PM 38.6333 -121.3000 80° East 300 345 8,000  Level Northern Cal TRACON
Thu 04:41:00 PM 38.5294 -121.1199 76° East  Level FlightAware Approximate
Thu 04:42:00 PM 38.5587 -120.9650 78° East  Level FlightAware Approximate
Thu 04:43:00 PM 38.5847 -120.8091 78° East  Level FlightAware Approximate
Thu 04:43:03 PM 38.6481 -121.0697 85° East 331 381 11,100  Level Oakland Center
Thu 04:44:04 PM 38.6592 -120.9364 84° East 365 420 13,100 2,439 Climbing Oakland Center
Thu 04:45:06 PM 38.6711 -120.8006 84° East 379 436 16,100 2,806 Climbing Oakland Center
Thu 04:46:08 PM 38.6825 -120.6617 84° East 389 448 18,900 1,659 Climbing Oakland Center
Thu 04:47:09 PM 38.6944 -120.5061 84° East 442 509 19,500 1,512 Climbing Oakland Center
Thu 04:48:11 PM 38.7064 -120.3544 84° East 430 495 22,000 1,707 Climbing Oakland Center
Thu 04:49:12 PM 38.7353 -120.2094 76° East 428 493 23,000 1,073 Climbing Oakland Center
Thu 04:50:14 PM 38.8631 -120.1097 31° Northeast 446 513 24,200 1,065 Climbing Oakland Center
Thu 04:51:16 PM 38.9786 -120.0319 28° Northeast 457 526 25,200 927 Climbing Oakland Center
Thu 04:52:17 PM 39.0947 -119.9539 28° Northeast 465 535 26,100 878 Climbing Oakland Center
Thu 04:53:19 PM 39.2125 -119.8731 28° Northeast 475 547 27,000 823 Climbing Oakland Center
Thu 04:54:21 PM 39.3183 -119.7647 38° Northeast 484 557 27,800 732 Climbing Oakland Center
Thu 04:55:22 PM 39.4094 -119.6339 48° Northeast 486 559 28,500 585 Climbing Oakland Center
Thu 04:56:24 PM 39.5028 -119.4972 48° Northeast 498 573 29,000 774 Climbing Oakland Center
Thu 04:57:26 PM 39.5967 -119.3594 48° Northeast 506 582 30,100 1,024 Climbing Oakland Center
Thu 04:58:27 PM 39.6897 -119.2231 48° Northeast 502 578 31,100 878 Climbing Oakland Center
Thu 04:59:29 PM 39.7819 -119.0872 49° Northeast 499 574 31,900 823 Climbing Oakland Center
Thu 05:00:31 PM 39.8958 -118.9208 48° Northeast 505 581 32,800 878 Climbing Oakland Center
Thu 05:01:32 PM 39.9894 -118.7803 49° Northeast 510 587 33,700 732 Climbing Oakland Center
Thu 05:02:34 PM 40.0814 -118.6436 49° Northeast 503 579 34,300 585 Climbing Oakland Center
Thu 05:03:35 PM 40.1592 -118.4894 57° Northeast 504 580 34,900 378 Climbing Oakland Center
Thu 05:04:25 PM 40.2103 -118.3506 64° Northeast 503 579 35,000 54 Climbing Salt Lake Center
Thu 05:05:27 PM 40.2694 -118.1922 64° Northeast 504 580 35,000  Level Salt Lake Center
Thu 05:06:29 PM 40.3381 -118.0072 64° Northeast 504 580 35,000  Level Salt Lake Center
Thu 05:08:33 PM 40.4547 -117.6908 64° Northeast 503 579 35,000  Level Salt Lake Center
Thu 05:09:35 PM 40.5222 -117.5042 65° Northeast 505 581 35,000  Level Salt Lake Center
Thu 05:10:37 PM 40.5819 -117.3447 64° Northeast 505 581 35,000  Level Salt Lake Center
Thu 05:11:39 PM 40.6489 -117.1558 65° Northeast 505 581 35,000  Level Salt Lake Center
Thu 05:12:41 PM 40.7064 -116.9942 65° Northeast 505 581 35,000  Level Salt Lake Center
Thu 05:13:43 PM 40.7739 -116.8061 65° Northeast 503 579 35,000  Level Salt Lake Center
Thu 05:14:45 PM 40.8306 -116.6453 65° Northeast 501 577 35,000  Level Salt Lake Center
Thu 05:15:47 PM 40.8858 -116.4842 66° East 502 578 35,000  Level Salt Lake Center
Thu 05:16:49 PM 40.9508 -116.2969 65° Northeast 501 577 35,000  Level Salt Lake Center
Thu 05:17:51 PM 41.0078 -116.1367 65° Northeast 502 578 35,000  Level Salt Lake Center
Thu 05:18:53 PM 41.0728 -115.9481 65° Northeast 503 579 35,000  Level Salt Lake Center
Thu 05:19:55 PM 41.1272 -115.7897 65° Northeast 497 572 35,000  Level Salt Lake Center
Thu 05:20:57 PM 41.1897 -115.6006 66° East 498 573 35,000  Level Salt Lake Center
Thu 05:22:00 PM 41.2430 -115.4382 66° East  Level FlightAware Approximate
Thu 05:23:01 PM 41.3072 -115.2531 66° East 498 573 35,000  Level Salt Lake Center
Thu 05:24:04 PM 41.3669 -115.0769 66° East 501 577 35,000  Level Salt Lake Center
Thu 05:25:06 PM 41.4147 -114.9292 67° East 499 574 35,000  Level Salt Lake Center
Thu 05:26:08 PM 41.4781 -114.7389 66° East 500 575 35,000  Level Salt Lake Center
Thu 05:27:10 PM 41.5364 -114.5697 65° Northeast 502 578 35,000  Level Salt Lake Center
Thu 05:28:12 PM 41.6111 -114.4139 57° Northeast 499 574 35,000  Level Salt Lake Center
Thu 05:29:14 PM 41.6869 -114.2572 57° Northeast 502 578 35,000  Level Salt Lake Center
Thu 05:30:16 PM 41.7764 -114.0681 58° Northeast 501 577 35,000  Level Salt Lake Center
Thu 05:31:18 PM 41.8519 -113.9092 57° Northeast 504 580 35,000  Level Salt Lake Center
Thu 05:32:20 PM 41.9283 -113.7519 57° Northeast 502 578 35,000  Level Salt Lake Center
Thu 05:33:22 PM 42.0036 -113.5936 57° Northeast 503 579 35,000  Level Salt Lake Center
Thu 05:34:24 PM 42.0600 -113.4214 66° East 506 582 35,000  Level Salt Lake Center
Thu 05:35:26 PM 42.0958 -113.2411 75° East 502 578 35,000  Level Salt Lake Center
Thu 05:36:28 PM 42.1325 -113.0600 75° East 503 579 35,000  Level Salt Lake Center
Thu 05:37:30 PM 42.1758 -112.8411 75° East 504 580 35,000  Level Salt Lake Center
Thu 05:38:32 PM 42.2106 -112.6592 75° East 503 579 35,000  Level Salt Lake Center
Thu 05:39:34 PM 42.2464 -112.4758 75° East 504 580 35,000  Level Salt Lake Center
Thu 05:40:36 PM 42.2797 -112.2925 76° East 505 581 35,000  Level Salt Lake Center
Thu 05:41:38 PM 42.3133 -112.1083 76° East 505 581 35,000  Level Salt Lake Center
Thu 05:42:40 PM 42.3467 -111.9242 76° East 504 580 35,000 -48 Level Salt Lake Center
Thu 05:43:42 PM 42.3861 -111.7053 76° East 501 577 34,900  Descending Salt Lake Center
Thu 05:44:44 PM 42.4192 -111.5219 76° East 502 578 35,000 48 Climbing Salt Lake Center
Thu 05:45:46 PM 42.4511 -111.3375 77° East 503 579 35,000 48 Level Salt Lake Center
Thu 05:46:48 PM 42.4844 -111.1511 76° East 508 585 35,100 339 Climbing Salt Lake Center
Thu 05:47:50 PM 42.5164 -110.9656 77° East 508 585 35,700 629 Climbing Salt Lake Center
Thu 05:48:52 PM 42.5497 -110.7714 77° East 504 580 36,400 629 Climbing Salt Lake Center
Thu 05:49:54 PM 42.5847 -110.5642 77° East 505 581 37,000 290 Climbing Salt Lake Center
Thu 05:50:56 PM 42.6139 -110.3872 77° East 503 579 37,000  Level Salt Lake Center
Thu 05:51:59 PM 42.6478 -110.1808 77° East 501 577 37,000  Level Salt Lake Center
Thu 05:53:01 PM 42.6775 -110.0022 77° East 505 581 37,000  Level Salt Lake Center
Thu 05:54:03 PM 42.7058 -109.8236 78° East 505 581 37,000  Level Salt Lake Center
Thu 05:55:05 PM 42.7400 -109.6147 77° East 507 583 37,000  Level Salt Lake Center
Thu 05:56:07 PM 42.7683 -109.4356 78° East 505 581 37,000  Level Salt Lake Center
Thu 05:57:09 PM 42.8003 -109.2289 78° East 502 578 37,000  Level Salt Lake Center
Thu 05:58:11 PM 42.8281 -109.0506 78° East 502 578 37,000  Level Salt Lake Center
Thu 05:59:13 PM 42.8597 -108.8433 78° East 501 577 37,000  Level Salt Lake Center
Thu 06:00:16 PM 42.8869 -108.6672 78° East 498 573 37,000  Level Salt Lake Center
Thu 06:01:18 PM 42.9172 -108.4569 79° East 504 580 37,000  Level Salt Lake Center
Thu 06:02:20 PM 42.9431 -108.2778 79° East 503 579 37,000  Level Salt Lake Center
Thu 06:03:22 PM 42.9692 -108.0972 79° East 501 577 37,000  Level Salt Lake Center
Thu 06:04:24 PM 43.0022 -107.8739 78° East 503 579 37,000  Level Salt Lake Center
Thu 06:05:26 PM 43.0286 -107.6892 79° East 500 575 37,000  Level Salt Lake Center
Thu 06:06:28 PM 43.0553 -107.5031 79° East 502 578 37,000  Level Salt Lake Center
Thu 06:07:30 PM 43.0822 -107.3164 79° East 501 577 37,000  Level Salt Lake Center
Thu 06:08:32 PM 43.1081 -107.1306 79° East 500 575 37,000  Level Salt Lake Center
Thu 06:09:37 PM 43.1397 -106.9186 78° East 498 573 37,000  Level Denver Center
Thu 06:10:39 PM 43.1625 -106.7394 80° East 498 573 37,000  Level Denver Center
Thu 06:11:41 PM 43.1914 -106.5297 79° East 502 578 37,000  Level Denver Center
Thu 06:12:43 PM 43.2158 -106.3508 79° East 500 575 37,000  Level Denver Center
Thu 06:13:45 PM 43.2433 -106.1414 80° East 500 575 37,000  Level Denver Center
Thu 06:14:59 PM 43.2661 -105.9631 80° East 496 571 37,000  Level Denver Center
Thu 06:16:02 PM 43.2975 -105.7225 80° East 499 574 37,000  Level Denver Center
Thu 06:17:04 PM 43.3233 -105.5122 80° East 499 574 37,000  Level Denver Center
Thu 06:18:18 PM 43.3469 -105.3297 80° East 503 579 37,000  Level Denver Center
Thu 06:19:20 PM 43.3772 -105.0864 80° East 505 581 37,000  Level Denver Center
Thu 06:20:22 PM 43.3978 -104.9061 81° East 500 575 37,000  Level Denver Center
Thu 06:21:24 PM 43.4222 -104.6947 81° East 499 574 37,000  Level Denver Center
Thu 06:22:26 PM 43.4217 -104.5111 90° East 499 574 37,000  Level Denver Center
Thu 06:23:29 PM 43.4225 -104.3269 90° East 499 574 37,000  Level Denver Center
Thu 06:24:31 PM 43.4222 -104.1150 90° East 497 572 37,000  Level Denver Center
Thu 06:25:33 PM 43.4222 -103.9344 90° East 493 567 37,000  Level Denver Center
Thu 06:26:35 PM 43.4225 -103.7228 90° East 494 568 37,000  Level Denver Center
Thu 06:27:37 PM 43.4236 -103.5411 89° East 494 568 37,000  Level Denver Center
Thu 06:28:39 PM 43.4272 -103.3303 89° East 496 571 37,000  Level Denver Center
Thu 06:29:41 PM 43.4389 -103.1497 85° East 497 572 37,000  Level Denver Center
Thu 06:30:43 PM 43.4608 -102.9419 82° East 495 570 37,000  Level Denver Center
Thu 06:31:45 PM 43.4947 -102.7664 75° East 496 571 37,000  Level Denver Center
Thu 06:32:47 PM 43.5314 -102.5639 76° East 492 566 37,000  Level Denver Center
Thu 06:33:49 PM 43.5631 -102.3881 76° East 496 571 37,000  Level Denver Center
Thu 06:34:51 PM 43.6011 -102.1850 75° East 491 565 37,000  Level Denver Center
Thu 06:35:53 PM 43.6231 -102.0253 79° East 492 566 37,000  Level Denver Center
Thu 06:36:56 PM 43.6472 -101.8025 81° East 492 566 37,000  Level Denver Center
Thu 06:37:58 PM 43.6517 -101.6133 88° East 493 567 37,000  Level Denver Center
Thu 06:39:00 PM 43.6542 -101.4242 89° East 496 571 37,000  Level Denver Center
Thu 06:40:02 PM 43.6581 -101.2367 88° East 493 567 37,000  Level Denver Center
Thu 06:41:04 PM 43.6606 -101.0481 89° East 493 567 37,000  Level Denver Center
Thu 06:42:06 PM 43.6636 -100.8581 89° East 497 572 37,000  Level Denver Center
Thu 06:43:08 PM 43.6667 -100.6311 89° East 497 572 37,000  Level Denver Center
Thu 06:44:10 PM 43.6692 -100.4431 89° East 492 566 37,000  Level Denver Center
Thu 06:45:12 PM 43.6711 -100.2511 89° East 500 575 37,000  Level Denver Center
Thu 06:46:14 PM 43.6719 -100.0569 90° East 505 581 37,000  Level Denver Center
Thu 06:47:16 PM 43.6736 -99.8650 89° East 506 582 37,000  Level Denver Center
Thu 06:48:18 PM 43.6756 -99.6408 89° East 496 571 37,000  Level Denver Center
Thu 06:49:43 PM 43.6756 -99.3853 90° East 487 560 37,000  Level Minneapolis Center
Thu 06:50:45 PM 43.6758 -99.1992 90° East 487 560 37,000  Level Minneapolis Center
Thu 06:51:47 PM 43.6756 -99.0122 90° East 488 562 37,000  Level Minneapolis Center
Thu 06:52:49 PM 43.6747 -98.8253 90° East 488 562 37,000  Level Minneapolis Center
Thu 06:53:52 PM 43.6744 -98.6133 90° East 487 560 37,000  Level Minneapolis Center
Thu 06:54:54 PM 43.6733 -98.4272 90° East 487 560 37,000  Level Minneapolis Center
Thu 06:55:56 PM 43.6722 -98.2417 90° East 485 558 37,000  Level Minneapolis Center
Thu 06:56:58 PM 43.6700 -98.0561 91° East 485 558 37,000  Level Minneapolis Center
Thu 06:58:00 PM 43.6689 -97.8719 90° East 482 555 37,000  Level Minneapolis Center
Thu 06:59:02 PM 43.6658 -97.6500 91° East 483 556 37,000  Level Minneapolis Center
Thu 07:00:06 PM 43.6619 -97.4656 92° East 483 556 37,000  Level Minneapolis Center
Thu 07:01:08 PM 43.6594 -97.2808 91° East 484 557 37,000  Level Minneapolis Center
Thu 07:02:10 PM 43.6558 -97.0969 91° East 482 555 37,000  Level Minneapolis Center
Thu 07:03:12 PM 43.6519 -96.9125 92° East 484 557 37,000  Level Minneapolis Center
Thu 07:04:14 PM 43.6433 -96.6931 93° East 483 556 37,000  Level Minneapolis Center
Thu 07:05:29 PM 43.6289 -96.4758 95° East 479 551 37,000  Level Minneapolis Center
Thu 07:06:31 PM 43.6150 -96.2953 96° East 479 551 37,000  Level Minneapolis Center
Thu 07:07:33 PM 43.6025 -96.1150 95° East 478 550 37,000  Level Minneapolis Center
Thu 07:08:35 PM 43.5861 -95.8989 96° East 478 550 37,000  Level Minneapolis Center
Thu 07:09:37 PM 43.5722 -95.7194 96° East 476 548 37,000  Level Minneapolis Center
Thu 07:10:39 PM 43.5583 -95.5381 96° East 479 551 37,000  Level Minneapolis Center
Thu 07:11:41 PM 43.5444 -95.3572 96° East 479 551 37,000  Level Minneapolis Center
Thu 07:12:43 PM 43.5297 -95.1761 96° East 479 551 37,000  Level Minneapolis Center
Thu 07:13:45 PM 43.5147 -94.9947 96° East 479 551 37,000  Level Minneapolis Center
Thu 07:14:47 PM 43.4958 -94.7789 97° East 476 548 37,000  Level Minneapolis Center
Thu 07:15:50 PM 43.4800 -94.5992 97° East 476 548 37,000  Level Minneapolis Center
Thu 07:16:52 PM 43.4642 -94.4194 97° East 475 547 37,000  Level Minneapolis Center
Thu 07:17:54 PM 43.4486 -94.2539 97° East 473 544 37,000  Level Minneapolis Center
Thu 07:18:56 PM 43.4300 -94.0397 97° East 472 543 37,000  Level Minneapolis Center
Thu 07:20:11 PM 43.4106 -93.8286 97° East 470 541 37,000 -44 Level Minneapolis Center
Thu 07:21:13 PM 43.3931 -93.6542 98° East 466 536 36,900 -439 Descending Minneapolis Center
Thu 07:22:14 PM 43.3772 -93.4792 97° East 466 536 36,100 -871 Descending Minneapolis Center
Thu 07:23:17 PM 43.3592 -93.3042 98° East 467 537 35,100 -1,056 Descending Minneapolis Center
Thu 07:24:19 PM 43.3389 -93.0917 97° East 470 541 33,900 -1,016 Descending Minneapolis Center
Thu 07:25:21 PM 43.3206 -92.9147 98° East 471 542 33,000 -581 Descending Minneapolis Center
Thu 07:26:23 PM 43.3028 -92.7394 98° East 470 541 32,700 -629 Descending Minneapolis Center
Thu 07:27:25 PM 43.2839 -92.5672 99° East 463 533 31,700 -823 Descending Minneapolis Center
Thu 07:28:27 PM 43.2664 -92.3928 98° East 464 534 31,000 -339 Descending Minneapolis Center
Thu 07:29:29 PM 43.2447 -92.1853 98° East 462 532 31,000 -219 Level Minneapolis Center
Thu 07:30:44 PM 43.2217 -91.9783 99° East 460 529 30,500 -657 Descending Minneapolis Center
Thu 07:31:46 PM 43.2033 -91.8028 98° East 464 534 29,500 -968 Descending Minneapolis Center
Thu 07:32:48 PM 43.1761 -91.6317 102° East 462 532 28,500 -968 Descending Minneapolis Center
Thu 07:33:50 PM 43.1233 -91.4739 115° Southeast 456 525 27,500 -756 Descending Minneapolis Center
Thu 07:34:47 PM 43.0697 -91.3211 116° Southeast 450 518 27,000 -252 Descending Chicago Center
Thu 07:35:49 PM 43.0156 -91.1669 116° Southeast 450 518 27,000  Level Chicago Center
Thu 07:36:51 PM 42.9622 -91.0139 115° Southeast 448 516 27,000  Level Chicago Center
Thu 07:37:53 PM 42.8981 -90.8294 115° Southeast 451 519 27,000  Level Chicago Center
Thu 07:38:55 PM 42.8444 -90.6775 116° Southeast 450 518 27,000 -242 Level Chicago Center
Thu 07:39:57 PM 42.7914 -90.5267 116° Southeast 443 510 26,500 -726 Descending Chicago Center
Thu 07:40:59 PM 42.7375 -90.3825 117° Southeast 435 501 25,500 -968 Descending Chicago Center
Thu 07:42:01 PM 42.6850 -90.2336 116° Southeast 437 503 24,500 -720 Descending Chicago Center
Thu 07:43:04 PM 42.6172 -90.0517 117° Southeast 449 517 24,000 -240 Descending Chicago Center
Thu 07:44:06 PM 42.5608 -89.8928 116° Southeast 455 524 24,000 -97 Level Chicago Center
Thu 07:45:08 PM 42.5172 -89.7361 111° Southeast 453 521 23,800 -1,161 Descending Chicago Center
Thu 07:46:10 PM 42.5153 -89.5647 91° East 454 522 21,600 -1,984 Descending Chicago Center
Thu 07:47:12 PM 42.5122 -89.3975 91° East 447 514 19,700 -1,935 Descending Chicago Center
Thu 07:48:14 PM 42.5094 -89.2081 91° East 435 501 17,600 -1,839 Descending Chicago Center
Thu 07:49:16 PM 42.5075 -89.0528 91° East 419 482 15,900 -1,645 Descending Chicago Center
Thu 07:50:18 PM 42.4981 -88.9008 95° East 414 476 14,200 -1,645 Descending Chicago Center
Thu 07:51:20 PM 42.4567 -88.7656 112° Southeast 391 450 12,500 -1,839 Descending Chicago Center
Thu 07:52:22 PM 42.4086 -88.6094 113° Southeast 386 444 10,400 -1,200 Descending Chicago Center
Thu 07:53:25 PM 42.3692 -88.4800 112° Southeast 376 433 10,000 -192 Descending Chicago Center
Thu 07:54:27 PM 42.3239 -88.3597 117° Southeast 366 421 10,000  Level Chicago Center
Thu 07:55:29 PM 42.2589 -88.2531 129° Southeast 367 422 10,000  Level Chicago Center
Thu 07:56:31 PM 42.2000 -88.1522 128° Southeast 351 404 10,000 -677 Level Chicago Center
Thu 07:57:33 PM 42.1386 -88.0806 139° Southeast 303 349 8,600 -1,403 Descending Chicago Center
Thu 07:58:35 PM 42.0903 -87.9719 121° Southeast 306 352 7,100 -960 Descending Chicago Center
Thu 07:59:13 PM 42.1000 -87.9000 80° East 322 371 7,000 -612 Descending Chicago TRACON
Thu 08:00:13 PM 42.1000 -87.8000 90° East 269 310 6,100 -1,450 Descending Chicago TRACON
Thu 08:01:13 PM 42.0667 -87.7167 118° Southeast 246 283 4,100 -1,550 Descending Chicago TRACON
Thu 08:02:13 PM 42.0167 -87.7500 206° Southwest 203 234 3,000 -1,000 Descending Chicago TRACON
Thu 08:02:43 PM 42.0058 -87.7656 227° Southwest 206 237 2,600 -800 Descending Chicago Center

Login

Don't have an account? Register now (free) for customized features, flight alerts, and more!